Time;durP1;ratioP1;P1;durP2;ratioP2;P2;SDS_P1;SDS_P2;PMS_P1;PMS_P2;Temp;Humidity;BMP_temperature;BMP_pressure;BME280_temperature;BME280_humidity;BME280_pressure;Samples;Min_cycle;Max_cycle;Signal;HPM_P1;HPM_P2
2022/10/22 00:00:39;;;;;;;11.55;8.18;;;;;;;9.44;69.88;98424.74;1791508;80;25611;-62
2022/10/22 00:03:06;;;;;;;11.48;8.18;;;;;;;9.44;69.89;98423.95;1791816;80;27431;-61
2022/10/22 00:05:32;;;;;;;14.70;9.50;;;;;;;9.39;69.98;98422.94;1791667;80;25628;-62
2022/10/22 00:07:58;;;;;;;16.42;9.88;;;;;;;9.37;70.43;98430.67;1791613;78;25616;-61
2022/10/22 00:10:25;;;;;;;14.18;8.93;;;;;;;9.32;70.05;98434.88;1791857;80;26407;-62
2022/10/22 00:12:52;;;;;;;14.85;9.65;;;;;;;9.31;70.12;98436.56;1791349;80;25454;-62
2022/10/22 00:15:18;;;;;;;14.25;8.43;;;;;;;9.26;70.60;98434.76;1792030;80;27480;-62
2022/10/22 00:17:44;;;;;;;13.70;9.08;;;;;;;9.22;70.41;98433.77;1791337;80;25894;-62
2022/10/22 00:20:11;;;;;;;14.45;9.53;;;;;;;9.19;70.38;98436.58;1791459;80;25442;-62
2022/10/22 00:22:38;;;;;;;16.05;10.70;;;;;;;9.19;70.38;98435.20;1791453;80;25946;-62
2022/10/22 00:25:05;;;;;;;13.18;9.03;;;;;;;9.17;70.42;98440.16;1791707;80;25425;-61
2022/10/22 00:27:32;;;;;;;12.85;8.20;;;;;;;9.14;70.45;98447.07;1764808;80;27475;-62
2022/10/22 00:29:58;;;;;;;11.70;8.43;;;;;;;9.14;70.61;98447.07;1761046;81;25565;-62
2022/10/22 00:32:24;;;;;;;12.28;7.80;;;;;;;9.11;70.78;98432.66;1761160;81;25681;-61
2022/10/22 00:34:50;;;;;;;14.38;8.93;;;;;;;9.11;70.69;98428.55;1761122;81;25911;-61
2022/10/22 00:37:17;;;;;;;12.58;8.15;;;;;;;9.11;70.79;98435.39;1761466;80;25694;-61
2022/10/22 00:39:43;;;;;;;14.58;7.80;;;;;;;9.13;70.68;98443.28;1761521;81;27477;-61
2022/10/22 00:42:17;;;;;;;14.80;8.88;;;;;;;9.13;70.67;98439.18;1761579;80;25664;-61
2022/10/22 00:45:11;;;;;;;11.95;6.75;;;;;;;9.11;70.64;98435.39;1761530;81;25661;-61
2022/10/22 00:48:01;;;;;;;12.60;8.23;;;;;;;9.07;70.99;98440.41;1761453;81;26456;-61
2022/10/22 00:50:45;;;;;;;16.48;9.73;;;;;;;9.03;70.95;98435.56;1761617;81;25641;-62
2022/10/22 00:53:21;;;;;;;12.90;7.97;;;;;;;8.98;71.09;98419.27;1761148;81;27397;-61
2022/10/22 00:55:51;;;;;;;9.98;6.45;;;;;;;8.94;71.09;98411.45;1761552;80;25617;-62
2022/10/22 00:58:27;;;;;;;13.75;8.50;;;;;;;8.89;71.44;98409.64;1761244;81;25451;-61
2022/10/22 01:00:55;;;;;;;12.13;7.00;;;;;;;8.86;71.25;98408.89;1761402;80;26626;-61
2022/10/22 01:03:21;;;;;;;13.45;6.60;;;;;;;8.86;71.41;98400.69;1761399;80;25612;-61
2022/10/22 01:06:00;;;;;;;11.05;7.25;;;;;;;8.87;71.49;98409.70;1761313;81;27407;-61
2022/10/22 01:08:50;;;;;;;12.63;7.00;;;;;;;8.88;71.45;98404.48;1761346;81;25757;-62
2022/10/22 01:12:06;;;;;;;12.58;8.33;;;;;;;8.89;71.43;98408.27;1761113;81;25626;-62
2022/10/22 01:14:58;;;;;;;12.15;6.58;;;;;;;8.92;71.37;98410.94;1761384;80;26613;-61
2022/10/22 01:17:54;;;;;;;11.80;6.80;;;;;;;8.88;71.60;98394.38;1761597;81;25591;-61
2022/10/22 01:20:53;;;;;;;10.53;6.87;;;;;;;8.86;71.47;98388.94;1761355;80;28354;-61
2022/10/22 01:23:50;;;;;;;10.78;6.35;;;;;;;8.83;71.66;98384.91;1761208;81;25914;-62
2022/10/22 01:26:33;;;;;;;11.78;6.80;;;;;;;8.78;71.95;98383.69;1761072;80;25649;-62
2022/10/22 01:29:19;;;;;;;9.65;6.80;;;;;;;8.77;71.66;98384.78;1757834;81;25721;-61
2022/10/22 01:31:51;;;;;;;13.70;8.28;;;;;;;8.75;71.77;98384.30;1761684;81;25601;-61
2022/10/22 01:34:18;;;;;;;11.25;7.22;;;;;;;8.72;71.81;98391.16;1761308;81;28190;-62
2022/10/22 01:36:46;;;;;;;13.78;7.70;;;;;;;8.69;71.96;98389.62;1761354;80;25569;-61
2022/10/22 01:39:15;;;;;;;15.38;7.10;;;;;;;8.68;71.95;98382.53;1761500;80;25586;-61
2022/10/22 01:41:47;;;;;;;10.93;6.30;;;;;;;8.69;72.15;98384.16;1761143;81;26550;-61
2022/10/22 01:44:30;;;;;;;14.03;6.97;;;;;;;8.71;72.16;98384.64;1761241;81;25590;-61
2022/10/22 01:47:13;;;;;;;14.50;6.50;;;;;;;8.74;72.16;98384.84;1761174;81;27463;-63
2022/10/22 01:50:05;;;;;;;12.28;6.58;;;;;;;8.77;72.13;98382.05;1761025;81;25624;-62
2022/10/22 01:53:02;;;;;;;10.35;6.37;;;;;;;8.83;71.86;98373.98;1746041;82;25674;-62
2022/10/22 01:55:56;;;;;;;11.95;7.05;;;;;;;8.85;71.83;98369.03;1745630;82;25897;-62
2022/10/22 01:59:04;;;;;;;11.85;6.97;;;;;;;8.87;71.72;98370.09;1746155;82;25496;-62
2022/10/22 02:01:50;;;;;;;10.60;5.92;;;;;;;8.86;71.81;98365.72;1745464;82;27463;-62
2022/10/22 02:04:35;;;;;;;10.45;6.25;;;;;;;8.85;71.85;98356.73;1746137;82;25740;-62
2022/10/22 02:07:11;;;;;;;11.45;5.97;;;;;;;8.85;71.81;98359.46;1745485;82;25704;-62
2022/10/22 02:09:43;;;;;;;12.47;6.80;;;;;;;8.87;71.88;98363.25;1745404;82;25715;-62
2022/10/22 02:12:18;;;;;;;12.40;7.28;;;;;;;8.89;71.67;98358.27;1745832;82;25474;-62
2022/10/22 02:14:50;;;;;;;14.45;7.53;;;;;;;8.90;71.79;98358.53;1745543;82;26243;-62
2022/10/22 02:17:22;;;;;;;13.70;7.78;;;;;;;8.95;71.64;98360.34;1745287;82;26270;-62
2022/10/22 02:20:20;;;;;;;18.20;9.80;;;;;;;8.99;71.40;98362.14;1721055;82;25735;-62
2022/10/22 02:22:47;;;;;;;14.25;7.65;;;;;;;9.05;71.30;98350.52;1745779;82;26144;-62
2022/10/22 02:25:14;;;;;;;13.55;7.95;;;;;;;9.09;71.16;98348.77;1746158;82;25557;-62
2022/10/22 02:28:15;;;;;;;19.75;8.95;;;;;;;9.10;71.10;98352.32;1746159;82;27432;-62
2022/10/22 02:30:48;;;;;;;20.25;9.98;;;;;;;9.09;71.22;98348.77;1647977;85;25758;-62
2022/10/22 02:33:22;;;;;;;21.15;10.48;;;;;;;9.07;71.35;98357.83;1645388;87;25542;-62
2022/10/22 02:35:50;;;;;;;20.88;10.60;;;;;;;9.05;71.34;98369.66;1645626;86;26594;-62
2022/10/22 02:38:18;;;;;;;14.47;8.48;;;;;;;9.02;71.35;98375.19;1645676;87;25673;-62
2022/10/22 02:40:46;;;;;;;24.23;11.95;;;;;;;8.98;71.29;98374.17;1645746;86;27380;-62
2022/10/22 02:43:12;;;;;;;17.65;9.05;;;;;;;8.97;71.32;98382.69;1645557;86;25540;-62
2022/10/22 02:45:38;;;;;;;15.63;8.10;;;;;;;8.92;71.41;98384.98;1645468;87;25535;-62
2022/10/22 02:48:05;;;;;;;16.23;9.48;;;;;;;8.90;71.54;98388.59;1645592;87;25716;-62
2022/10/22 02:50:31;;;;;;;14.33;8.23;;;;;;;8.89;71.53;98391.05;1645844;86;25570;-62
2022/10/22 02:52:57;;;;;;;12.40;7.40;;;;;;;8.89;71.51;98382.31;1645909;87;27644;-62
2022/10/22 02:55:23;;;;;;;10.93;6.97;;;;;;;8.93;71.45;98385.24;1645663;86;25919;-62
2022/10/22 02:57:50;;;;;;;9.88;6.12;;;;;;;8.97;71.31;98386.78;1645591;87;25649;-62
2022/10/22 03:00:17;;;;;;;13.55;7.47;;;;;;;9.00;71.36;98386.98;1645588;86;25808;-62
2022/10/22 03:02:43;;;;;;;8.65;6.33;;;;;;;9.03;71.30;98382.27;1645676;87;25647;-62
2022/10/22 03:05:09;;;;;;;12.18;7.00;;;;;;;9.04;71.22;98389.34;1645783;86;27231;-62
2022/10/22 03:07:36;;;;;;;10.20;6.35;;;;;;;9.03;71.36;98389.09;1693880;82;25680;-62
2022/10/22 03:10:02;;;;;;;10.32;7.30;;;;;;;9.01;71.47;98391.90;1732521;82;25542;-62
2022/10/22 03:12:28;;;;;;;7.97;5.72;;;;;;;9.01;71.44;98395.42;1732656;82;25942;-62
2022/10/22 03:14:55;;;;;;;8.58;6.15;;;;;;;8.98;71.46;98382.95;1732219;82;25473;-62
2022/10/22 03:17:21;;;;;;;7.70;4.95;;;;;;;8.98;71.59;98378.85;1732180;82;27464;-62
2022/10/22 03:19:47;;;;;;;9.45;6.75;;;;;;;8.95;71.49;98363.86;1732400;82;25454;-61
2022/10/22 03:22:19;;;;;;;9.95;6.42;;;;;;;8.95;71.47;98361.70;1732538;82;25498;-62
2022/10/22 03:24:50;;;;;;;10.88;6.45;;;;;;;8.96;71.57;98359.21;1730695;82;27652;-62
2022/10/22 03:27:19;;;;;;;7.85;5.40;;;;;;;8.97;71.45;98361.63;1732749;82;25753;-62
2022/10/22 03:29:46;;;;;;;11.38;6.10;;;;;;;9.01;71.36;98361.83;1732497;82;28271;-62
2022/10/22 03:32:13;;;;;;;11.70;7.10;;;;;;;9.04;71.26;98362.00;1732401;82;25620;-62
2022/10/22 03:34:39;;;;;;;15.48;7.67;;;;;;;9.04;71.28;98367.47;1732199;82;25486;-61
2022/10/22 03:37:06;;;;;;;9.30;5.85;;;;;;;9.03;71.23;98364.50;1732953;82;25716;-61
2022/10/22 03:39:35;;;;;;;12.37;7.50;;;;;;;9.02;71.26;98354.69;1732287;82;25468;-61
2022/10/22 03:42:02;;;;;;;11.08;6.45;;;;;;;9.01;71.32;98360.47;1732543;82;27433;-62
2022/10/22 03:44:29;;;;;;;9.73;6.47;;;;;;;8.96;71.43;98365.50;1732392;82;25785;-61
2022/10/22 03:46:56;;;;;;;10.85;7.08;;;;;;;8.95;71.56;98374.00;1732579;82;25670;-61
2022/10/22 03:49:23;;;;;;;11.20;7.35;;;;;;;8.91;71.59;98380.09;1732195;82;26157;-62
2022/10/22 03:51:49;;;;;;;14.70;9.00;;;;;;;8.89;71.64;98373.30;1736174;82;25480;-62
2022/10/22 03:54:16;;;;;;;16.57;7.92;;;;;;;8.86;71.79;98373.37;1740091;82;27846;-62
2022/10/22 03:56:42;;;;;;;10.80;5.75;;;;;;;8.85;71.78;98387.34;1740435;82;25413;-62
2022/10/22 03:59:09;;;;;;;12.07;7.03;;;;;;;8.82;72.15;98382.48;1740277;82;25603;-62
2022/10/22 04:01:35;;;;;;;14.07;7.12;;;;;;;8.82;71.91;98380.58;1740036;82;25763;-62
2022/10/22 04:04:01;;;;;;;14.87;8.30;;;;;;;8.84;71.87;98383.78;1740030;82;25687;-62
2022/10/22 04:06:29;;;;;;;11.28;7.20;;;;;;;8.85;71.81;98382.69;1740271;82;27457;-62
2022/10/22 04:08:55;;;;;;;11.60;6.45;;;;;;;8.88;71.79;98383.98;1740194;82;26017;-62
2022/10/22 04:11:22;;;;;;;16.73;8.53;;;;;;;8.90;71.70;98385.86;1740265;82;25586;-62
2022/10/22 04:13:48;;;;;;;14.40;8.55;;;;;;;8.91;71.86;98390.20;1740390;82;25903;-62
2022/10/22 04:16:21;;;;;;;21.27;10.53;;;;;;;8.90;71.84;98395.42;1740067;82;25688;-62
2022/10/22 04:18:49;;;;;;;16.30;9.10;;;;;;;8.89;71.89;98406.09;1740310;82;27487;-62
2022/10/22 04:21:18;;;;;;;13.35;7.05;;;;;;;8.86;71.91;98396.59;1739866;82;25623;-62
2022/10/22 04:23:51;;;;;;;15.55;7.12;;;;;;;8.82;72.02;98393.41;1740495;82;25751;-62
2022/10/22 04:26:19;;;;;;;12.07;7.10;;;;;;;8.77;72.00;98388.88;1740587;82;26819;-62
2022/10/22 04:28:48;;;;;;;9.95;6.55;;;;;;;8.73;72.30;98385.16;1740012;82;25454;-62
2022/10/22 04:31:20;;;;;;;12.88;7.17;;;;;;;8.63;72.22;98369.24;1740432;82;27374;-62
2022/10/22 04:33:49;;;;;;;11.50;6.45;;;;;;;8.58;72.32;98364.46;1740184;82;25423;-62
2022/10/22 04:36:18;;;;;;;11.45;6.12;;;;;;;8.53;72.41;98342.92;1740031;82;25497;-62
2022/10/22 04:38:48;;;;;;;13.75;7.08;;;;;;;8.49;72.49;98343.30;1740358;82;25761;-62
2022/10/22 04:41:19;;;;;;;12.47;7.12;;;;;;;8.47;72.45;98349.64;1740033;82;25688;-62
2022/10/22 04:43:46;;;;;;;11.50;7.60;;;;;;;8.46;72.49;98361.66;1740542;82;27641;-62
2022/10/22 04:46:16;;;;;;;11.60;7.25;;;;;;;8.47;72.49;98360.56;1740129;82;25490;-62
2022/10/22 04:48:44;;;;;;;15.83;7.78;;;;;;;8.49;72.65;98364.36;1740222;82;25490;-62
2022/10/22 04:51:16;;;;;;;12.07;6.55;;;;;;;8.46;72.64;98356.78;1739388;82;25709;-62
2022/10/22 04:53:44;;;;;;;12.10;6.35;;;;;;;8.44;72.85;98363.09;1732574;82;25419;-62
2022/10/22 04:56:20;;;;;;;13.95;8.05;;;;;;;8.39;73.02;98366.20;1732483;82;27477;-62
2022/10/22 04:58:52;;;;;;;10.75;6.30;;;;;;;8.37;73.01;98366.23;1732068;82;26302;-62
2022/10/22 05:01:23;;;;;;;10.55;6.70;;;;;;;8.30;73.32;98358.47;1732465;82;25666;-62
2022/10/22 05:03:52;;;;;;;12.33;6.40;;;;;;;8.24;73.52;98358.33;1732176;82;25721;-62
2022/10/22 05:06:20;;;;;;;11.75;6.85;;;;;;;8.17;73.70;98366.91;1732512;82;25696;-62
2022/10/22 05:08:47;;;;;;;12.30;7.62;;;;;;;8.12;74.21;98356.91;1732469;82;27420;-62
2022/10/22 05:11:17;;;;;;;12.18;7.00;;;;;;;8.12;74.05;98358.84;1732404;82;25486;-62
2022/10/22 05:13:44;;;;;;;12.53;7.83;;;;;;;8.13;73.76;98358.55;1732704;82;25455;-62
2022/10/22 05:16:12;;;;;;;14.13;8.65;;;;;;;8.13;73.76;98358.55;1732115;82;44666;-62
2022/10/22 05:18:42;;;;;;;14.38;7.80;;;;;;;8.14;73.88;98366.16;1732034;82;25398;-62
2022/10/22 05:21:12;;;;;;;13.50;7.45;;;;;;;8.10;73.94;98352.33;1732464;82;28335;-62
2022/10/22 05:23:39;;;;;;;12.53;7.92;;;;;;;8.09;73.99;98356.73;1732610;82;25489;-62
2022/10/22 05:26:07;;;;;;;14.47;7.12;;;;;;;8.05;74.05;98352.42;1732392;82;25754;-62
2022/10/22 05:28:34;;;;;;;13.00;7.85;;;;;;;8.02;74.35;98353.03;1732315;82;25690;-62
2022/10/22 05:31:01;;;;;;;13.43;7.97;;;;;;;8.00;74.17;98346.52;1732396;82;25667;-62
2022/10/22 05:33:31;;;;;;;13.30;8.13;;;;;;;8.01;74.37;98350.06;1732852;82;27672;-62
2022/10/22 05:35:58;;;;;;;17.82;8.95;;;;;;;8.03;74.20;98354.64;1732685;82;25592;-62
2022/10/22 05:38:25;;;;;;;15.75;7.95;;;;;;;8.05;74.36;98348.33;1732119;82;25489;-62
2022/10/22 05:41:07;;;;;;;15.20;8.98;;;;;;;8.04;74.47;98345.36;1732439;82;25764;-63
2022/10/22 05:43:34;;;;;;;10.90;6.33;;;;;;;8.04;74.41;98354.34;1732348;82;25696;-62
2022/10/22 05:46:04;;;;;;;12.23;7.33;;;;;;;8.02;74.84;98358.48;1732598;82;28173;-62
2022/10/22 05:48:31;;;;;;;12.53;6.70;;;;;;;8.01;74.87;98359.03;1731700;82;27213;-62
2022/10/22 05:51:07;;;;;;;15.38;8.50;;;;;;;7.99;75.21;98357.73;1732769;82;25612;-62
2022/10/22 05:53:37;;;;;;;19.65;9.48;;;;;;;8.01;74.99;98364.49;1741970;82;25945;-62
2022/10/22 05:56:12;;;;;;;15.05;8.03;;;;;;;8.05;74.98;98367.44;1742631;82;25636;-62
2022/10/22 05:58:39;;;;;;;15.48;9.33;;;;;;;8.09;75.09;98379.34;1742536;82;27428;-62
2022/10/22 06:01:13;;;;;;;13.35;8.35;;;;;;;8.17;74.74;98387.39;1742552;82;27266;-62
2022/10/22 06:03:40;;;;;;;13.88;8.08;;;;;;;8.22;74.60;98384.56;1742719;82;25567;-62
2022/10/22 06:06:27;;;;;;;23.30;10.98;;;;;;;8.27;74.55;98394.57;1742857;82;25756;-62
2022/10/22 06:08:55;;;;;;;14.33;9.08;;;;;;;8.32;74.55;98384.10;1724301;82;25780;-62
2022/10/22 06:11:22;;;;;;;11.48;6.33;;;;;;;8.37;74.49;98388.89;1743035;81;27578;-62
2022/10/22 06:13:51;;;;;;;17.05;9.73;;;;;;;8.41;74.64;98396.71;1743112;81;25757;-62
2022/10/22 06:16:17;;;;;;;15.85;9.08;;;;;;;8.45;74.47;98402.93;1742722;82;25438;-62
2022/10/22 06:18:44;;;;;;;17.30;8.88;;;;;;;8.51;74.63;98403.07;1742700;82;25691;-62
2022/10/22 06:21:14;;;;;;;15.30;9.20;;;;;;;8.56;74.47;98411.20;1743535;82;25611;-62
2022/10/22 06:23:41;;;;;;;13.90;8.03;;;;;;;8.62;74.32;98415.98;1742994;82;27537;-62
2022/10/22 06:26:10;;;;;;;11.05;6.83;;;;;;;8.70;74.15;98420.73;1742864;82;25729;-62
2022/10/22 06:28:37;;;;;;;15.10;7.37;;;;;;;8.76;74.00;98419.51;1743066;82;25435;-62
2022/10/22 06:31:04;;;;;;;15.90;8.08;;;;;;;8.88;74.08;98423.61;1743242;82;25636;-62
2022/10/22 06:33:36;;;;;;;16.52;8.40;;;;;;;8.99;73.70;98426.38;1743210;82;25486;-62
2022/10/22 06:36:09;;;;;;;15.18;7.75;;;;;;;9.11;73.44;98429.92;1742851;82;26721;-62
2022/10/22 06:38:35;;;;;;;17.10;7.75;;;;;;;9.20;73.32;98429.98;1742275;82;25815;-62
2022/10/22 06:41:04;;;;;;;16.17;8.45;;;;;;;9.28;72.87;98425.14;1742726;82;25462;-62
2022/10/22 06:43:31;;;;;;;16.73;8.58;;;;;;;9.34;73.13;98420.90;1743033;81;26348;-62
2022/10/22 06:46:08;;;;;;;18.77;8.55;;;;;;;9.38;72.96;98418.60;1743105;82;25445;-62
2022/10/22 06:48:36;;;;;;;15.55;8.63;;;;;;;9.46;72.72;98421.70;1743020;82;27447;-62
2022/10/22 06:51:07;;;;;;;15.35;7.55;;;;;;;9.51;72.62;98428.42;1742988;82;25431;-62
2022/10/22 06:53:35;;;;;;;12.95;8.05;;;;;;;9.56;72.50;98446.63;1742742;82;25446;-62
2022/10/22 06:56:14;;;;;;;15.15;8.40;;;;;;;9.60;72.43;98451.72;1742966;82;26559;-63
2022/10/22 06:58:41;;;;;;;13.65;7.40;;;;;;;9.62;72.09;98446.17;1743035;82;25652;-62
2022/10/22 07:01:11;;;;;;;15.80;8.90;;;;;;;9.66;71.89;98437.61;1742738;81;27412;-62
2022/10/22 07:03:40;;;;;;;13.32;8.40;;;;;;;9.72;71.79;98442.38;1743380;82;25596;-62
2022/10/22 07:06:10;;;;;;;14.07;7.85;;;;;;;9.82;71.47;98444.05;1743084;82;25667;-62
2022/10/22 07:08:37;;;;;;;17.35;8.78;;;;;;;9.88;71.17;98440.62;1743370;82;25819;-62
2022/10/22 07:11:14;;;;;;;14.50;9.35;;;;;;;9.95;71.34;98442.88;1743004;82;25697;-62
2022/10/22 07:13:40;;;;;;;14.65;8.15;;;;;;;10.00;71.31;98437.28;1742596;81;27383;-62
2022/10/22 07:16:08;;;;;;;12.88;7.78;;;;;;;10.02;70.87;98446.78;1742764;82;25613;-63
2022/10/22 07:18:36;;;;;;;14.25;7.12;;;;;;;10.03;70.81;98442.95;1742949;82;25427;-62
2022/10/22 07:21:04;;;;;;;14.58;8.40;;;;;;;10.06;70.44;98440.13;1742844;82;26500;-63
2022/10/22 07:23:31;;;;;;;10.50;6.60;;;;;;;10.09;71.30;98428.55;1742800;81;25592;-62
2022/10/22 07:25:58;;;;;;;13.03;7.80;;;;;;;10.12;70.78;98407.94;1742811;82;27530;-63
2022/10/22 07:28:24;;;;;;;12.58;7.70;;;;;;;10.14;70.48;98412.54;1742710;82;25671;-63
2022/10/22 07:30:51;;;;;;;16.40;8.00;;;;;;;10.15;70.32;98427.28;1742999;82;25766;-63
2022/10/22 07:33:17;;;;;;;14.65;7.30;;;;;;;10.20;70.48;98441.40;1742991;82;26680;-63
2022/10/22 07:35:43;;;;;;;13.43;8.53;;;;;;;10.26;70.17;98450.27;1742781;82;25442;-62
2022/10/22 07:38:23;;;;;;;15.08;9.25;;;;;;;10.32;70.23;98449.01;1742773;82;28415;-63
2022/10/22 07:40:50;;;;;;;14.03;9.00;;;;;;;10.42;70.32;98447.89;1742875;82;25522;-63
2022/10/22 07:43:16;;;;;;;15.00;8.33;;;;;;;10.50;70.62;98446.33;1743043;82;25490;-62
2022/10/22 07:45:42;;;;;;;14.10;8.28;;;;;;;10.59;69.67;98444.42;1743057;82;25673;-63
2022/10/22 07:48:08;;;;;;;17.42;9.88;;;;;;;10.63;70.13;98431.72;1742674;82;25442;-62
2022/10/22 07:50:35;;;;;;;18.60;9.45;;;;;;;10.71;70.01;98427.94;1742716;81;27559;-63
2022/10/22 07:53:01;;;;;;;18.23;9.65;;;;;;;10.79;70.00;98433.42;1741246;82;25473;-63
2022/10/22 07:55:28;;;;;;;15.55;8.83;;;;;;;10.89;70.17;98444.66;1740075;82;25533;-63
2022/10/22 07:57:55;;;;;;;14.07;9.10;;;;;;;10.96;70.21;98439.23;1740368;82;26211;-63
2022/10/22 08:00:21;;;;;;;17.12;9.70;;;;;;;11.02;69.38;98430.53;1740035;82;25600;-63
2022/10/22 08:02:47;;;;;;;15.10;9.73;;;;;;;11.10;70.01;98419.33;1740520;82;27376;-63
2022/10/22 08:05:15;;;;;;;15.05;9.45;;;;;;;11.18;69.54;98434.17;1739975;82;25619;-63
2022/10/22 08:07:42;;;;;;;13.70;8.55;;;;;;;11.23;69.77;98450.44;1739989;82;25560;-63
2022/10/22 08:10:10;;;;;;;16.07;8.75;;;;;;;11.27;69.18;98459.66;1740060;82;25784;-63
2022/10/22 08:12:37;;;;;;;15.48;8.08;;;;;;;11.28;68.81;98468.67;1740032;82;25450;-63
2022/10/22 08:15:06;;;;;;;20.10;10.85;;;;;;;11.31;69.13;98457.64;1740439;82;27476;-63
2022/10/22 08:17:32;;;;;;;23.62;12.40;;;;;;;11.25;68.16;98462.46;1740119;82;25468;-62
2022/10/22 08:19:59;;;;;;;25.72;13.80;;;;;;;11.30;68.52;98465.05;1740003;82;25627;-63
2022/10/22 08:22:25;;;;;;;17.23;10.23;;;;;;;11.37;68.50;98455.77;1740062;82;25790;-62
2022/10/22 08:24:52;;;;;;;20.08;12.78;;;;;;;11.46;68.08;98455.78;1740280;82;25479;-63
2022/10/22 08:27:18;;;;;;;18.60;10.40;;;;;;;11.56;68.17;98465.59;1740169;82;27513;-63
2022/10/22 08:29:45;;;;;;;18.23;10.90;;;;;;;11.62;67.63;98463.48;1739878;82;25683;-63
2022/10/22 08:32:11;;;;;;;15.13;8.68;;;;;;;11.62;68.10;98457.98;1739919;82;25593;-63
2022/10/22 08:34:38;;;;;;;15.00;9.63;;;;;;;11.60;67.62;98455.57;1740422;82;25868;-63
2022/10/22 08:37:07;;;;;;;16.62;9.03;;;;;;;11.60;67.82;98454.78;1740381;82;25490;-63
2022/10/22 08:39:33;;;;;;;13.45;8.43;;;;;;;11.59;67.89;98449.85;1739832;82;26533;-62
2022/10/22 08:42:30;;;;;;;18.37;9.23;;;;;;;11.59;67.93;98443.55;1740099;82;25599;-63
2022/10/22 08:45:14;;;;;;;16.15;9.25;;;;;;;11.59;67.88;98435.31;1740378;82;25680;-63
2022/10/22 08:48:04;;;;;;;14.80;9.43;;;;;;;11.58;67.70;98444.13;1739921;82;25766;-63
2022/10/22 08:50:36;;;;;;;15.65;9.00;;;;;;;11.61;68.08;98448.97;1740089;82;25741;-63
2022/10/22 08:53:07;;;;;;;16.67;9.55;;;;;;;11.63;67.64;98439.83;1736906;82;26799;-63
2022/10/22 08:55:35;;;;;;;14.33;9.28;;;;;;;11.70;68.05;98441.27;1732333;82;25689;-63
2022/10/22 08:58:33;;;;;;;21.27;8.75;;;;;;;11.79;68.51;98437.94;1732376;82;25715;-63
2022/10/22 09:01:16;;;;;;;11.90;7.33;;;;;;;11.84;67.61;98442.45;1731609;82;25725;-63
2022/10/22 09:03:50;;;;;;;14.75;8.63;;;;;;;11.86;67.02;98448.42;1732038;82;25599;-63
2022/10/22 09:06:29;;;;;;;13.32;8.28;;;;;;;11.87;67.26;98455.52;1732358;82;28287;-63
2022/10/22 09:08:58;;;;;;;15.28;9.20;;;;;;;11.90;67.49;98458.98;1732574;82;25672;-63
2022/10/22 09:11:35;;;;;;;19.10;9.68;;;;;;;11.96;67.54;98455.48;1732080;82;25458;-63
2022/10/22 09:14:03;;;;;;;14.23;9.25;;;;;;;11.98;67.71;98460.91;1732278;82;25732;-63
2022/10/22 09:16:55;;;;;;;15.30;9.40;;;;;;;11.97;67.40;98463.40;1732428;82;25426;-63
2022/10/22 09:19:45;;;;;;;15.45;9.05;;;;;;;12.00;67.90;98454.51;1732578;82;27410;-63
2022/10/22 09:22:32;;;;;;;16.87;9.98;;;;;;;12.05;67.58;98450.77;1732349;82;26044;-63
2022/10/22 09:25:20;;;;;;;16.10;9.03;;;;;;;12.16;67.59;98462.23;1732089;82;25477;-63
2022/10/22 09:27:48;;;;;;;12.88;8.50;;;;;;;12.16;67.59;98462.23;1732046;82;25738;-63
2022/10/22 09:30:18;;;;;;;14.65;8.55;;;;;;;12.22;67.71;98457.36;1732445;82;25624;-63
2022/10/22 09:32:45;;;;;;;14.45;8.58;;;;;;;12.28;67.44;98459.61;1732327;82;28095;-63
2022/10/22 09:35:13;;;;;;;14.13;9.23;;;;;;;12.37;67.46;98466.43;1732522;82;25596;-63
2022/10/22 09:37:50;;;;;;;16.50;10.40;;;;;;;12.44;67.36;98459.05;1732048;82;25660;-63
2022/10/22 09:40:18;;;;;;;10.60;6.95;;;;;;;12.52;67.43;98469.77;1732384;82;25677;-63
2022/10/22 09:42:48;;;;;;;14.90;8.48;;;;;;;12.64;66.92;98464.34;1732179;82;25411;-63
2022/10/22 09:45:23;;;;;;;12.57;8.00;;;;;;;12.64;66.92;98464.34;1732522;82;27500;-63
2022/10/22 09:47:49;;;;;;;12.60;7.70;;;;;;;12.68;66.43;98467.24;1695310;82;25658;-63
2022/10/22 09:50:46;;;;;;;12.23;8.05;;;;;;;12.73;65.96;98482.19;1732513;82;25487;-63
2022/10/22 09:53:34;;;;;;;13.85;7.58;;;;;;;12.75;66.22;98478.52;1735038;82;26599;-63
2022/10/22 09:56:04;;;;;;;16.55;7.58;;;;;;;12.76;66.40;98482.89;1740389;82;25596;-63
2022/10/22 09:58:41;;;;;;;12.80;8.20;;;;;;;12.75;66.17;98492.84;1711773;81;27378;-63
2022/10/22 10:01:07;;;;;;;15.45;8.23;;;;;;;12.74;66.68;98492.59;1697463;84;25592;-62
2022/10/22 10:03:34;;;;;;;15.10;8.40;;;;;;;12.69;66.12;98481.22;1696922;84;25705;-63
2022/10/22 10:06:01;;;;;;;10.63;7.72;;;;;;;12.66;66.30;98476.37;1697582;84;25736;-62
2022/10/22 10:08:28;;;;;;;14.10;8.13;;;;;;;12.65;66.13;98471.47;1697781;83;25600;-62
2022/10/22 10:11:22;;;;;;;16.50;9.13;;;;;;;12.63;66.91;98468.23;1697597;84;27461;-62
2022/10/22 10:14:35;;;;;;;16.25;9.25;;;;;;;12.60;66.83;98470.27;1654619;86;25627;-62
2022/10/22 10:17:34;;;;;;;12.68;7.50;;;;;;;12.60;66.71;98473.02;1654594;86;25714;-62
2022/10/22 10:20:12;;;;;;;11.28;7.37;;;;;;;12.61;67.06;98469.13;1654393;86;25739;-62
2022/10/22 10:23:21;;;;;;;10.45;7.25;;;;;;;12.56;67.20;98472.08;1653798;86;25708;-63
2022/10/22 10:26:04;;;;;;;11.08;7.12;;;;;;;12.56;67.20;98472.08;1653976;86;27410;-62
2022/10/22 10:28:41;;;;;;;13.95;9.33;;;;;;;12.45;68.41;98466.71;1654135;86;26008;-62
2022/10/22 10:31:31;;;;;;;15.98;10.53;;;;;;;12.32;69.00;98452.08;1654556;86;25787;-62
2022/10/22 10:34:26;;;;;;;118.53;55.48;;;;;;;12.47;69.19;98478.19;1654285;86;26616;-63
2022/10/22 10:37:19;;;;;;;113.55;52.98;;;;;;;12.48;70.12;98481.98;1654465;86;25702;-62
2022/10/22 10:39:56;;;;;;;88.75;59.98;;;;;;;12.48;70.12;98481.98;1654509;86;27775;-62
2022/10/22 10:42:48;;;;;;;41.95;27.82;;;;;;;12.37;69.64;98474.67;1654111;86;25581;-63
2022/10/22 10:45:25;;;;;;;29.45;19.52;;;;;;;12.33;70.28;98471.54;1654364;86;25740;-62
2022/10/22 10:48:12;;;;;;;187.20;55.50;;;;;;;12.25;70.73;98472.62;1654538;86;25859;-63
2022/10/22 10:51:32;;;;;;;79.47;27.42;;;;;;;12.22;71.26;98465.60;1607535;86;25670;-63
2022/10/22 10:54:22;;;;;;;91.60;29.93;;;;;;;12.21;71.18;98474.99;1631371;87;27561;-63
2022/10/22 10:57:02;;;;;;;27.73;12.45;;;;;;;12.12;71.07;98462.08;1636169;87;26011;-62
2022/10/22 10:59:37;;;;;;;37.98;15.18;;;;;;;12.06;71.29;98457.87;1636725;87;25707;-63
2022/10/22 11:02:35;;;;;;;59.95;19.23;;;;;;;12.04;71.51;98452.70;1636708;87;25984;-63
2022/10/22 11:05:28;;;;;;;26.68;11.08;;;;;;;12.07;72.09;98447.17;1636007;87;25798;-63
2022/10/22 11:08:24;;;;;;;32.48;13.90;;;;;;;11.98;72.03;98447.18;1636291;87;28199;-63
2022/10/22 11:11:32;;;;;;;19.73;10.58;;;;;;;11.98;72.06;98431.26;1636160;87;26000;-63
2022/10/22 11:14:12;;;;;;;90.03;26.90;;;;;;;11.98;72.06;98431.26;1636307;87;25695;-63
2022/10/22 11:16:55;;;;;;;59.38;20.15;;;;;;;11.97;72.71;98438.69;1636172;87;27835;-63
2022/10/22 11:19:27;;;;;;;61.58;20.12;;;;;;;11.98;72.47;98444.99;1635747;87;25746;-62
2022/10/22 11:22:20;;;;;;;20.40;10.65;;;;;;;11.95;72.60;98451.14;1631106;87;27611;-63
2022/10/22 11:25:08;;;;;;;52.05;18.42;;;;;;;11.92;72.19;98441.62;1636080;87;25718;-62
2022/10/22 11:27:49;;;;;;;83.80;26.77;;;;;;;11.89;72.36;98445.81;1697243;84;25630;-62
2022/10/22 11:30:22;;;;;;;32.40;12.73;;;;;;;11.95;72.36;98449.20;1705893;83;27577;-63
2022/10/22 11:32:59;;;;;;;43.23;16.40;;;;;;;11.98;72.29;98442.25;1705897;83;25630;-63
2022/10/22 11:35:36;;;;;;;54.00;17.70;;;;;;;11.98;72.21;98446.37;1705411;83;27649;-63
2022/10/22 11:38:06;;;;;;;24.75;12.80;;;;;;;11.91;72.27;98447.67;1704677;83;25821;-62
2022/10/22 11:40:40;;;;;;;43.30;16.62;;;;;;;11.91;72.27;98447.67;1705747;83;25685;-63
2022/10/22 11:43:27;;;;;;;43.15;17.17;;;;;;;11.85;72.74;98448.98;1705219;83;25656;-63
2022/10/22 11:46:04;;;;;;;29.35;13.78;;;;;;;11.80;73.17;98447.22;1654486;86;25608;-63
2022/10/22 11:48:37;;;;;;;27.55;13.08;;;;;;;11.77;73.37;98441.56;1624026;87;27544;-62
2022/10/22 11:51:07;;;;;;;27.82;12.58;;;;;;;11.72;73.46;98438.45;1624547;88;25642;-63
2022/10/22 11:53:37;;;;;;;22.00;10.80;;;;;;;11.74;73.27;98438.09;1624223;86;25665;-62
2022/10/22 11:56:12;;;;;;;26.65;13.18;;;;;;;11.73;73.42;98435.12;1641837;87;25835;-62
2022/10/22 11:58:43;;;;;;;26.95;13.28;;;;;;;11.72;73.21;98432.16;1640013;87;25783;-62